sensor_id;sensor_type;location;lat;lon;timestamp;P1;durP1;ratioP1;P2;durP2;ratioP2
3993;SDS011;2011;48.238;13.948;2022-08-21T00:00:22;14.77;;;10.00;;
3993;SDS011;2011;48.238;13.948;2022-08-21T00:02:52;16.03;;;10.73;;
3993;SDS011;2011;48.238;13.948;2022-08-21T00:05:23;19.40;;;12.20;;
3993;SDS011;2011;48.238;13.948;2022-08-21T00:07:53;18.03;;;12.83;;
3993;SDS011;2011;48.238;13.948;2022-08-21T00:10:22;20.33;;;13.50;;
3993;SDS011;2011;48.238;13.948;2022-08-21T00:12:50;20.80;;;14.07;;
3993;SDS011;2011;48.238;13.948;2022-08-21T00:15:19;18.43;;;13.07;;
3993;SDS011;2011;48.238;13.948;2022-08-21T00:17:48;23.83;;;14.47;;
3993;SDS011;2011;48.238;13.948;2022-08-21T00:20:16;19.97;;;13.97;;
3993;SDS011;2011;48.238;13.948;2022-08-21T00:22:43;20.90;;;14.30;;
3993;SDS011;2011;48.238;13.948;2022-08-21T00:25:13;17.83;;;14.17;;
3993;SDS011;2011;48.238;13.948;2022-08-21T00:27:42;26.20;;;14.27;;
3993;SDS011;2011;48.238;13.948;2022-08-21T00:30:12;18.50;;;13.20;;
3993;SDS011;2011;48.238;13.948;2022-08-21T00:32:41;17.70;;;12.23;;
3993;SDS011;2011;48.238;13.948;2022-08-21T00:35:10;16.60;;;12.73;;
3993;SDS011;2011;48.238;13.948;2022-08-21T00:37:39;17.27;;;11.80;;
3993;SDS011;2011;48.238;13.948;2022-08-21T00:40:08;17.80;;;12.90;;
3993;SDS011;2011;48.238;13.948;2022-08-21T00:42:39;22.00;;;12.77;;
3993;SDS011;2011;48.238;13.948;2022-08-21T00:45:08;19.43;;;12.73;;
3993;SDS011;2011;48.238;13.948;2022-08-21T00:47:36;14.80;;;11.70;;
3993;SDS011;2011;48.238;13.948;2022-08-21T00:50:04;20.87;;;12.50;;
3993;SDS011;2011;48.238;13.948;2022-08-21T00:52:34;17.90;;;12.13;;
3993;SDS011;2011;48.238;13.948;2022-08-21T00:55:03;20.23;;;13.40;;
3993;SDS011;2011;48.238;13.948;2022-08-21T00:57:36;16.73;;;12.17;;
3993;SDS011;2011;48.238;13.948;2022-08-21T01:00:11;18.77;;;12.50;;
3993;SDS011;2011;48.238;13.948;2022-08-21T01:02:41;16.90;;;12.80;;
3993;SDS011;2011;48.238;13.948;2022-08-21T01:05:09;20.77;;;13.23;;
3993;SDS011;2011;48.238;13.948;2022-08-21T01:07:37;20.50;;;13.60;;
3993;SDS011;2011;48.238;13.948;2022-08-21T01:10:05;17.20;;;13.07;;
3993;SDS011;2011;48.238;13.948;2022-08-21T01:12:33;16.77;;;13.23;;
3993;SDS011;2011;48.238;13.948;2022-08-21T01:15:05;16.77;;;12.87;;
3993;SDS011;2011;48.238;13.948;2022-08-21T01:17:34;20.87;;;14.10;;
3993;SDS011;2011;48.238;13.948;2022-08-21T01:20:03;17.67;;;12.97;;
3993;SDS011;2011;48.238;13.948;2022-08-21T01:22:34;18.07;;;12.90;;
3993;SDS011;2011;48.238;13.948;2022-08-21T01:25:02;17.03;;;12.87;;
3993;SDS011;2011;48.238;13.948;2022-08-21T01:27:30;19.93;;;12.97;;
3993;SDS011;2011;48.238;13.948;2022-08-21T01:29:58;16.50;;;12.23;;
3993;SDS011;2011;48.238;13.948;2022-08-21T01:32:30;14.17;;;11.93;;
3993;SDS011;2011;48.238;13.948;2022-08-21T01:34:57;17.50;;;13.00;;
3993;SDS011;2011;48.238;13.948;2022-08-21T01:37:25;22.70;;;14.13;;
3993;SDS011;2011;48.238;13.948;2022-08-21T01:39:54;16.10;;;12.67;;
3993;SDS011;2011;48.238;13.948;2022-08-21T01:42:21;19.83;;;13.03;;
3993;SDS011;2011;48.238;13.948;2022-08-21T01:44:48;17.10;;;12.90;;
3993;SDS011;2011;48.238;13.948;2022-08-21T01:47:16;17.37;;;13.07;;
3993;SDS011;2011;48.238;13.948;2022-08-21T01:49:43;24.83;;;13.60;;
3993;SDS011;2011;48.238;13.948;2022-08-21T01:52:11;18.10;;;13.67;;
3993;SDS011;2011;48.238;13.948;2022-08-21T01:54:39;17.40;;;12.90;;
3993;SDS011;2011;48.238;13.948;2022-08-21T01:57:09;19.27;;;12.63;;
3993;SDS011;2011;48.238;13.948;2022-08-21T01:59:38;18.13;;;13.77;;
3993;SDS011;2011;48.238;13.948;2022-08-21T02:02:05;20.50;;;15.57;;
3993;SDS011;2011;48.238;13.948;2022-08-21T02:04:33;16.50;;;12.73;;
3993;SDS011;2011;48.238;13.948;2022-08-21T02:07:01;18.20;;;13.73;;
3993;SDS011;2011;48.238;13.948;2022-08-21T02:09:28;18.50;;;13.40;;
3993;SDS011;2011;48.238;13.948;2022-08-21T02:11:56;20.27;;;13.03;;
3993;SDS011;2011;48.238;13.948;2022-08-21T02:14:25;18.80;;;12.70;;
3993;SDS011;2011;48.238;13.948;2022-08-21T02:16:53;17.73;;;11.47;;
3993;SDS011;2011;48.238;13.948;2022-08-21T02:19:20;17.73;;;12.80;;
3993;SDS011;2011;48.238;13.948;2022-08-21T02:21:47;20.30;;;12.20;;
3993;SDS011;2011;48.238;13.948;2022-08-21T02:24:15;19.30;;;13.30;;
3993;SDS011;2011;48.238;13.948;2022-08-21T02:26:42;16.30;;;12.50;;
3993;SDS011;2011;48.238;13.948;2022-08-21T02:29:09;15.90;;;12.37;;
3993;SDS011;2011;48.238;13.948;2022-08-21T02:31:38;16.20;;;12.10;;
3993;SDS011;2011;48.238;13.948;2022-08-21T02:34:06;17.43;;;12.20;;
3993;SDS011;2011;48.238;13.948;2022-08-21T02:36:34;19.80;;;12.87;;
3993;SDS011;2011;48.238;13.948;2022-08-21T02:39:01;18.97;;;13.50;;
3993;SDS011;2011;48.238;13.948;2022-08-21T02:41:29;16.50;;;12.83;;
3993;SDS011;2011;48.238;13.948;2022-08-21T02:43:56;19.70;;;13.00;;
3993;SDS011;2011;48.238;13.948;2022-08-21T02:46:24;19.97;;;13.50;;
3993;SDS011;2011;48.238;13.948;2022-08-21T02:48:53;17.57;;;13.73;;
3993;SDS011;2011;48.238;13.948;2022-08-21T02:51:20;18.70;;;14.20;;
3993;SDS011;2011;48.238;13.948;2022-08-21T02:53:50;18.43;;;14.60;;
3993;SDS011;2011;48.238;13.948;2022-08-21T02:56:18;17.47;;;13.30;;
3993;SDS011;2011;48.238;13.948;2022-08-21T02:58:47;22.60;;;14.53;;
3993;SDS011;2011;48.238;13.948;2022-08-21T03:01:18;22.13;;;14.83;;
3993;SDS011;2011;48.238;13.948;2022-08-21T03:03:46;22.40;;;16.37;;
3993;SDS011;2011;48.238;13.948;2022-08-21T03:06:18;21.50;;;15.90;;
3993;SDS011;2011;48.238;13.948;2022-08-21T03:08:47;25.90;;;16.30;;
3993;SDS011;2011;48.238;13.948;2022-08-21T03:11:16;20.83;;;14.60;;
3993;SDS011;2011;48.238;13.948;2022-08-21T03:13:44;21.83;;;14.70;;
3993;SDS011;2011;48.238;13.948;2022-08-21T03:16:11;18.37;;;14.20;;
3993;SDS011;2011;48.238;13.948;2022-08-21T03:18:40;16.83;;;12.80;;
3993;SDS011;2011;48.238;13.948;2022-08-21T03:21:07;20.13;;;13.87;;
3993;SDS011;2011;48.238;13.948;2022-08-21T03:23:37;20.37;;;13.20;;
3993;SDS011;2011;48.238;13.948;2022-08-21T03:26:04;17.90;;;12.70;;
3993;SDS011;2011;48.238;13.948;2022-08-21T03:28:32;23.83;;;14.40;;
3993;SDS011;2011;48.238;13.948;2022-08-21T03:31:00;15.50;;;12.13;;
3993;SDS011;2011;48.238;13.948;2022-08-21T03:33:27;18.07;;;14.10;;
3993;SDS011;2011;48.238;13.948;2022-08-21T03:35:57;17.80;;;13.30;;
3993;SDS011;2011;48.238;13.948;2022-08-21T03:38:27;16.60;;;11.73;;
3993;SDS011;2011;48.238;13.948;2022-08-21T03:40:58;18.00;;;11.33;;
3993;SDS011;2011;48.238;13.948;2022-08-21T03:43:26;14.80;;;12.20;;
3993;SDS011;2011;48.238;13.948;2022-08-21T03:45:54;17.73;;;11.60;;
3993;SDS011;2011;48.238;13.948;2022-08-21T03:48:22;17.93;;;12.07;;
3993;SDS011;2011;48.238;13.948;2022-08-21T03:50:51;19.67;;;13.53;;
3993;SDS011;2011;48.238;13.948;2022-08-21T03:53:19;21.20;;;13.60;;
3993;SDS011;2011;48.238;13.948;2022-08-21T03:55:47;19.60;;;13.90;;
3993;SDS011;2011;48.238;13.948;2022-08-21T03:58:20;24.13;;;16.07;;
3993;SDS011;2011;48.238;13.948;2022-08-21T04:00:51;22.20;;;15.90;;
3993;SDS011;2011;48.238;13.948;2022-08-21T04:03:20;28.13;;;18.70;;
3993;SDS011;2011;48.238;13.948;2022-08-21T04:05:48;23.10;;;16.87;;
3993;SDS011;2011;48.238;13.948;2022-08-21T04:08:16;27.17;;;18.27;;
3993;SDS011;2011;48.238;13.948;2022-08-21T04:10:45;26.70;;;17.77;;
3993;SDS011;2011;48.238;13.948;2022-08-21T04:13:15;30.00;;;19.57;;
3993;SDS011;2011;48.238;13.948;2022-08-21T04:15:44;26.37;;;18.10;;
3993;SDS011;2011;48.238;13.948;2022-08-21T04:18:11;35.00;;;19.47;;
3993;SDS011;2011;48.238;13.948;2022-08-21T04:20:39;28.67;;;17.63;;
3993;SDS011;2011;48.238;13.948;2022-08-21T04:23:08;29.10;;;18.37;;
3993;SDS011;2011;48.238;13.948;2022-08-21T04:25:36;30.30;;;20.20;;
3993;SDS011;2011;48.238;13.948;2022-08-21T04:28:04;35.60;;;21.90;;
3993;SDS011;2011;48.238;13.948;2022-08-21T04:30:31;32.00;;;20.40;;
3993;SDS011;2011;48.238;13.948;2022-08-21T04:33:00;28.83;;;20.30;;
3993;SDS011;2011;48.238;13.948;2022-08-21T04:35:28;35.00;;;21.83;;
3993;SDS011;2011;48.238;13.948;2022-08-21T04:37:56;34.33;;;21.20;;
3993;SDS011;2011;48.238;13.948;2022-08-21T04:40:25;34.13;;;21.37;;
3993;SDS011;2011;48.238;13.948;2022-08-21T04:42:54;35.90;;;22.67;;
3993;SDS011;2011;48.238;13.948;2022-08-21T04:45:24;36.60;;;22.93;;
3993;SDS011;2011;48.238;13.948;2022-08-21T04:47:57;35.23;;;21.83;;
3993;SDS011;2011;48.238;13.948;2022-08-21T04:50:27;31.90;;;21.27;;
3993;SDS011;2011;48.238;13.948;2022-08-21T04:52:57;33.83;;;20.40;;
3993;SDS011;2011;48.238;13.948;2022-08-21T04:55:26;33.80;;;23.13;;
3993;SDS011;2011;48.238;13.948;2022-08-21T04:57:54;30.53;;;21.13;;
3993;SDS011;2011;48.238;13.948;2022-08-21T05:00:22;34.40;;;21.83;;
3993;SDS011;2011;48.238;13.948;2022-08-21T05:02:51;39.00;;;23.07;;
3993;SDS011;2011;48.238;13.948;2022-08-21T05:05:24;35.47;;;22.00;;
3993;SDS011;2011;48.238;13.948;2022-08-21T05:07:53;38.23;;;23.20;;
3993;SDS011;2011;48.238;13.948;2022-08-21T05:10:22;34.23;;;22.10;;
3993;SDS011;2011;48.238;13.948;2022-08-21T05:12:50;35.90;;;22.70;;
3993;SDS011;2011;48.238;13.948;2022-08-21T05:15:18;39.73;;;22.87;;
3993;SDS011;2011;48.238;13.948;2022-08-21T05:17:46;39.23;;;23.13;;
3993;SDS011;2011;48.238;13.948;2022-08-21T05:20:15;38.87;;;22.93;;
3993;SDS011;2011;48.238;13.948;2022-08-21T05:22:43;39.60;;;23.30;;
3993;SDS011;2011;48.238;13.948;2022-08-21T05:25:12;43.17;;;25.30;;
3993;SDS011;2011;48.238;13.948;2022-08-21T05:27:40;46.20;;;23.57;;
3993;SDS011;2011;48.238;13.948;2022-08-21T05:30:08;39.57;;;24.50;;
3993;SDS011;2011;48.238;13.948;2022-08-21T05:32:36;47.70;;;26.07;;
3993;SDS011;2011;48.238;13.948;2022-08-21T05:35:05;46.77;;;25.33;;
3993;SDS011;2011;48.238;13.948;2022-08-21T05:37:33;42.80;;;25.10;;
3993;SDS011;2011;48.238;13.948;2022-08-21T05:40:01;54.23;;;27.57;;
3993;SDS011;2011;48.238;13.948;2022-08-21T05:42:33;54.83;;;29.20;;
3993;SDS011;2011;48.238;13.948;2022-08-21T05:45:00;47.80;;;28.70;;
3993;SDS011;2011;48.238;13.948;2022-08-21T05:47:28;47.83;;;26.90;;
3993;SDS011;2011;48.238;13.948;2022-08-21T05:49:55;53.00;;;28.33;;
3993;SDS011;2011;48.238;13.948;2022-08-21T05:52:23;47.43;;;26.43;;
3993;SDS011;2011;48.238;13.948;2022-08-21T05:54:50;47.33;;;25.83;;
3993;SDS011;2011;48.238;13.948;2022-08-21T05:57:19;45.97;;;25.53;;
3993;SDS011;2011;48.238;13.948;2022-08-21T05:59:48;42.87;;;25.73;;
3993;SDS011;2011;48.238;13.948;2022-08-21T06:02:16;46.87;;;24.63;;
3993;SDS011;2011;48.238;13.948;2022-08-21T06:04:45;41.17;;;23.73;;
3993;SDS011;2011;48.238;13.948;2022-08-21T06:07:12;43.83;;;25.77;;
3993;SDS011;2011;48.238;13.948;2022-08-21T06:09:40;51.93;;;26.90;;
3993;SDS011;2011;48.238;13.948;2022-08-21T06:12:09;47.67;;;26.43;;
3993;SDS011;2011;48.238;13.948;2022-08-21T06:14:38;49.00;;;27.20;;
3993;SDS011;2011;48.238;13.948;2022-08-21T06:17:08;48.00;;;25.50;;
3993;SDS011;2011;48.238;13.948;2022-08-21T06:19:39;44.17;;;25.33;;
3993;SDS011;2011;48.238;13.948;2022-08-21T06:22:06;46.30;;;25.17;;
3993;SDS011;2011;48.238;13.948;2022-08-21T06:24:34;47.23;;;25.10;;
3993;SDS011;2011;48.238;13.948;2022-08-21T06:27:03;38.77;;;23.93;;
3993;SDS011;2011;48.238;13.948;2022-08-21T06:29:32;41.20;;;24.27;;
3993;SDS011;2011;48.238;13.948;2022-08-21T06:32:01;37.70;;;24.70;;
3993;SDS011;2011;48.238;13.948;2022-08-21T06:34:30;40.17;;;25.30;;
3993;SDS011;2011;48.238;13.948;2022-08-21T06:36:58;44.77;;;25.00;;
3993;SDS011;2011;48.238;13.948;2022-08-21T06:39:25;47.83;;;26.10;;
3993;SDS011;2011;48.238;13.948;2022-08-21T06:41:52;54.80;;;26.40;;
3993;SDS011;2011;48.238;13.948;2022-08-21T06:44:20;40.73;;;23.27;;
3993;SDS011;2011;48.238;13.948;2022-08-21T06:46:47;43.00;;;23.27;;
3993;SDS011;2011;48.238;13.948;2022-08-21T06:49:15;40.93;;;25.10;;
3993;SDS011;2011;48.238;13.948;2022-08-21T06:51:43;40.00;;;23.20;;
3993;SDS011;2011;48.238;13.948;2022-08-21T06:54:11;45.93;;;24.80;;
3993;SDS011;2011;48.238;13.948;2022-08-21T06:56:38;46.17;;;26.70;;
3993;SDS011;2011;48.238;13.948;2022-08-21T06:59:06;39.57;;;25.23;;
3993;SDS011;2011;48.238;13.948;2022-08-21T07:01:33;44.50;;;24.30;;
3993;SDS011;2011;48.238;13.948;2022-08-21T07:04:01;43.90;;;26.27;;
3993;SDS011;2011;48.238;13.948;2022-08-21T07:06:29;51.17;;;27.13;;
3993;SDS011;2011;48.238;13.948;2022-08-21T07:08:58;63.50;;;28.83;;
3993;SDS011;2011;48.238;13.948;2022-08-21T07:11:26;47.30;;;26.27;;
3993;SDS011;2011;48.238;13.948;2022-08-21T07:13:53;44.97;;;26.00;;
3993;SDS011;2011;48.238;13.948;2022-08-21T07:16:21;48.20;;;27.23;;
3993;SDS011;2011;48.238;13.948;2022-08-21T07:18:49;46.20;;;28.90;;
3993;SDS011;2011;48.238;13.948;2022-08-21T07:21:17;43.40;;;24.70;;
3993;SDS011;2011;48.238;13.948;2022-08-21T07:23:45;37.60;;;23.50;;
3993;SDS011;2011;48.238;13.948;2022-08-21T07:26:16;44.90;;;26.87;;
3993;SDS011;2011;48.238;13.948;2022-08-21T07:28:45;49.70;;;26.03;;
3993;SDS011;2011;48.238;13.948;2022-08-21T07:31:13;43.80;;;25.70;;
3993;SDS011;2011;48.238;13.948;2022-08-21T07:33:55;46.77;;;25.40;;
3993;SDS011;2011;48.238;13.948;2022-08-21T07:36:22;43.17;;;26.10;;
3993;SDS011;2011;48.238;13.948;2022-08-21T07:38:50;46.67;;;26.57;;
3993;SDS011;2011;48.238;13.948;2022-08-21T07:41:20;47.30;;;27.30;;
3993;SDS011;2011;48.238;13.948;2022-08-21T07:43:50;43.27;;;25.80;;
3993;SDS011;2011;48.238;13.948;2022-08-21T07:46:17;40.40;;;24.50;;
3993;SDS011;2011;48.238;13.948;2022-08-21T07:48:45;43.93;;;25.93;;
3993;SDS011;2011;48.238;13.948;2022-08-21T07:51:13;47.70;;;26.73;;
3993;SDS011;2011;48.238;13.948;2022-08-21T07:53:47;48.90;;;27.50;;
3993;SDS011;2011;48.238;13.948;2022-08-21T07:56:14;38.60;;;24.13;;
3993;SDS011;2011;48.238;13.948;2022-08-21T07:58:44;38.60;;;24.50;;
3993;SDS011;2011;48.238;13.948;2022-08-21T08:01:11;47.90;;;26.47;;
3993;SDS011;2011;48.238;13.948;2022-08-21T08:03:39;46.23;;;24.77;;
3993;SDS011;2011;48.238;13.948;2022-08-21T08:06:07;46.53;;;27.00;;
3993;SDS011;2011;48.238;13.948;2022-08-21T08:08:37;43.77;;;24.90;;
3993;SDS011;2011;48.238;13.948;2022-08-21T08:11:09;41.17;;;23.93;;
3993;SDS011;2011;48.238;13.948;2022-08-21T08:13:38;39.87;;;23.60;;
3993;SDS011;2011;48.238;13.948;2022-08-21T08:16:08;39.90;;;23.10;;
3993;SDS011;2011;48.238;13.948;2022-08-21T08:18:35;41.13;;;25.20;;
3993;SDS011;2011;48.238;13.948;2022-08-21T08:21:03;33.17;;;22.57;;
3993;SDS011;2011;48.238;13.948;2022-08-21T08:23:31;39.40;;;21.30;;
3993;SDS011;2011;48.238;13.948;2022-08-21T08:25:59;34.50;;;22.10;;
3993;SDS011;2011;48.238;13.948;2022-08-21T08:28:27;32.33;;;20.77;;
3993;SDS011;2011;48.238;13.948;2022-08-21T08:30:57;34.90;;;20.13;;
3993;SDS011;2011;48.238;13.948;2022-08-21T08:33:27;36.27;;;19.90;;
3993;SDS011;2011;48.238;13.948;2022-08-21T08:35:55;31.23;;;17.50;;
3993;SDS011;2011;48.238;13.948;2022-08-21T08:38:23;28.97;;;17.57;;
3993;SDS011;2011;48.238;13.948;2022-08-21T08:40:53;34.97;;;18.37;;
3993;SDS011;2011;48.238;13.948;2022-08-21T08:43:27;22.97;;;16.40;;
3993;SDS011;2011;48.238;13.948;2022-08-21T08:45:55;23.23;;;15.60;;
3993;SDS011;2011;48.238;13.948;2022-08-21T08:51:19;26.20;;;14.90;;
3993;SDS011;2011;48.238;13.948;2022-08-21T08:53:52;24.87;;;15.93;;
3993;SDS011;2011;48.238;13.948;2022-08-21T08:56:26;24.00;;;15.47;;
3993;SDS011;2011;48.238;13.948;2022-08-21T08:58:59;27.23;;;14.90;;
3993;SDS011;2011;48.238;13.948;2022-08-21T09:01:32;23.40;;;15.40;;
3993;SDS011;2011;48.238;13.948;2022-08-21T09:04:01;25.17;;;15.27;;
3993;SDS011;2011;48.238;13.948;2022-08-21T09:09:37;21.77;;;14.80;;
3993;SDS011;2011;48.238;13.948;2022-08-21T09:12:19;25.90;;;17.07;;
3993;SDS011;2011;48.238;13.948;2022-08-21T09:14:58;28.00;;;15.70;;
3993;SDS011;2011;48.238;13.948;2022-08-21T09:17:38;25.80;;;15.90;;
3993;SDS011;2011;48.238;13.948;2022-08-21T09:20:21;32.07;;;17.20;;
3993;SDS011;2011;48.238;13.948;2022-08-21T09:22:58;26.10;;;15.37;;
3993;SDS011;2011;48.238;13.948;2022-08-21T09:25:38;26.73;;;16.50;;
3993;SDS011;2011;48.238;13.948;2022-08-21T09:28:09;20.70;;;15.50;;
3993;SDS011;2011;48.238;13.948;2022-08-21T09:30:40;25.80;;;16.20;;
3993;SDS011;2011;48.238;13.948;2022-08-21T09:33:07;22.20;;;15.33;;
3993;SDS011;2011;48.238;13.948;2022-08-21T09:35:48;31.60;;;16.60;;
3993;SDS011;2011;48.238;13.948;2022-08-21T09:38:25;25.20;;;16.90;;
3993;SDS011;2011;48.238;13.948;2022-08-21T09:40:58;28.53;;;17.03;;
3993;SDS011;2011;48.238;13.948;2022-08-21T09:43:29;27.30;;;16.90;;
3993;SDS011;2011;48.238;13.948;2022-08-21T09:46:02;24.03;;;16.43;;
3993;SDS011;2011;48.238;13.948;2022-08-21T09:48:39;23.43;;;15.43;;
3993;SDS011;2011;48.238;13.948;2022-08-21T09:51:11;22.83;;;15.47;;
3993;SDS011;2011;48.238;13.948;2022-08-21T09:53:42;28.33;;;17.90;;
3993;SDS011;2011;48.238;13.948;2022-08-21T09:56:20;29.10;;;16.50;;
3993;SDS011;2011;48.238;13.948;2022-08-21T09:59:14;32.70;;;17.10;;
3993;SDS011;2011;48.238;13.948;2022-08-21T10:01:44;24.17;;;16.93;;
3993;SDS011;2011;48.238;13.948;2022-08-21T10:04:14;23.33;;;16.77;;
3993;SDS011;2011;48.238;13.948;2022-08-21T10:06:43;23.23;;;16.73;;
3993;SDS011;2011;48.238;13.948;2022-08-21T10:09:11;23.93;;;17.00;;
3993;SDS011;2011;48.238;13.948;2022-08-21T10:11:42;28.00;;;17.77;;
3993;SDS011;2011;48.238;13.948;2022-08-21T10:14:17;25.00;;;17.40;;
3993;SDS011;2011;48.238;13.948;2022-08-21T10:16:56;26.40;;;16.47;;
3993;SDS011;2011;48.238;13.948;2022-08-21T10:19:32;37.13;;;17.60;;
3993;SDS011;2011;48.238;13.948;2022-08-21T10:22:14;27.03;;;17.37;;
3993;SDS011;2011;48.238;13.948;2022-08-21T10:24:51;21.97;;;16.47;;
3993;SDS011;2011;48.238;13.948;2022-08-21T10:27:26;25.63;;;16.47;;
3993;SDS011;2011;48.238;13.948;2022-08-21T10:30:02;24.50;;;17.83;;
3993;SDS011;2011;48.238;13.948;2022-08-21T10:35:28;22.93;;;16.80;;
3993;SDS011;2011;48.238;13.948;2022-08-21T10:38:21;22.50;;;16.00;;
3993;SDS011;2011;48.238;13.948;2022-08-21T10:41:10;25.73;;;15.70;;
3993;SDS011;2011;48.238;13.948;2022-08-21T10:43:50;26.93;;;16.63;;
3993;SDS011;2011;48.238;13.948;2022-08-21T10:46:26;21.10;;;16.20;;
3993;SDS011;2011;48.238;13.948;2022-08-21T10:49:10;30.97;;;16.33;;
3993;SDS011;2011;48.238;13.948;2022-08-21T10:51:46;20.93;;;15.83;;
3993;SDS011;2011;48.238;13.948;2022-08-21T10:54:26;27.23;;;16.87;;
3993;SDS011;2011;48.238;13.948;2022-08-21T10:57:02;23.40;;;17.10;;
3993;SDS011;2011;48.238;13.948;2022-08-21T10:59:36;21.80;;;15.70;;
3993;SDS011;2011;48.238;13.948;2022-08-21T11:02:09;22.40;;;15.70;;
3993;SDS011;2011;48.238;13.948;2022-08-21T11:04:47;22.80;;;16.10;;
3993;SDS011;2011;48.238;13.948;2022-08-21T11:07:20;22.77;;;16.03;;
3993;SDS011;2011;48.238;13.948;2022-08-21T11:09:54;32.47;;;18.73;;
3993;SDS011;2011;48.238;13.948;2022-08-21T11:12:26;21.00;;;16.00;;
3993;SDS011;2011;48.238;13.948;2022-08-21T11:15:02;22.43;;;15.97;;
3993;SDS011;2011;48.238;13.948;2022-08-21T11:17:39;21.13;;;16.67;;
3993;SDS011;2011;48.238;13.948;2022-08-21T11:20:12;24.30;;;15.63;;
3993;SDS011;2011;48.238;13.948;2022-08-21T11:22:44;20.30;;;15.33;;
3993;SDS011;2011;48.238;13.948;2022-08-21T11:25:20;26.73;;;16.63;;
3993;SDS011;2011;48.238;13.948;2022-08-21T11:27:53;22.27;;;16.07;;
3993;SDS011;2011;48.238;13.948;2022-08-21T11:30:26;20.10;;;14.00;;
3993;SDS011;2011;48.238;13.948;2022-08-21T11:33:03;18.20;;;14.00;;
3993;SDS011;2011;48.238;13.948;2022-08-21T11:35:42;17.87;;;14.33;;
3993;SDS011;2011;48.238;13.948;2022-08-21T11:38:22;21.47;;;14.93;;
3993;SDS011;2011;48.238;13.948;2022-08-21T11:41:01;17.17;;;13.27;;
3993;SDS011;2011;48.238;13.948;2022-08-21T11:43:40;18.07;;;14.17;;
3993;SDS011;2011;48.238;13.948;2022-08-21T11:46:13;20.80;;;14.33;;
3993;SDS011;2011;48.238;13.948;2022-08-21T11:48:56;21.10;;;13.83;;
3993;SDS011;2011;48.238;13.948;2022-08-21T11:51:33;19.07;;;13.67;;
3993;SDS011;2011;48.238;13.948;2022-08-21T11:54:07;17.37;;;13.20;;
3993;SDS011;2011;48.238;13.948;2022-08-21T11:56:53;25.40;;;12.50;;
3993;SDS011;2011;48.238;13.948;2022-08-21T11:59:27;20.93;;;13.23;;
3993;SDS011;2011;48.238;13.948;2022-08-21T12:02:05;18.33;;;13.30;;
3993;SDS011;2011;48.238;13.948;2022-08-21T12:04:45;18.47;;;13.30;;
3993;SDS011;2011;48.238;13.948;2022-08-21T12:07:29;17.50;;;13.53;;
3993;SDS011;2011;48.238;13.948;2022-08-21T12:10:00;16.33;;;12.83;;
3993;SDS011;2011;48.238;13.948;2022-08-21T12:12:34;15.97;;;11.97;;
3993;SDS011;2011;48.238;13.948;2022-08-21T12:15:11;15.77;;;11.90;;
3993;SDS011;2011;48.238;13.948;2022-08-21T12:17:52;20.87;;;13.47;;
3993;SDS011;2011;48.238;13.948;2022-08-21T12:23:27;16.50;;;12.60;;
3993;SDS011;2011;48.238;13.948;2022-08-21T12:26:02;13.33;;;6.30;;
3993;SDS011;2011;48.238;13.948;2022-08-21T12:28:45;5.40;;;3.97;;
3993;SDS011;2011;48.238;13.948;2022-08-21T12:31:18;6.17;;;3.73;;
3993;SDS011;2011;48.238;13.948;2022-08-21T12:33:56;6.40;;;4.00;;
3993;SDS011;2011;48.238;13.948;2022-08-21T12:36:39;6.63;;;4.23;;
3993;SDS011;2011;48.238;13.948;2022-08-21T12:39:12;6.57;;;4.57;;
3993;SDS011;2011;48.238;13.948;2022-08-21T12:41:46;6.77;;;3.83;;
3993;SDS011;2011;48.238;13.948;2022-08-21T12:44:24;6.13;;;3.97;;
3993;SDS011;2011;48.238;13.948;2022-08-21T12:47:05;6.47;;;4.03;;
3993;SDS011;2011;48.238;13.948;2022-08-21T12:49:43;5.63;;;3.73;;
3993;SDS011;2011;48.238;13.948;2022-08-21T12:52:22;6.37;;;4.47;;
3993;SDS011;2011;48.238;13.948;2022-08-21T12:55:11;12.17;;;4.20;;
3993;SDS011;2011;48.238;13.948;2022-08-21T12:57:43;8.13;;;4.67;;
3993;SDS011;2011;48.238;13.948;2022-08-21T13:00:20;8.00;;;4.50;;
3993;SDS011;2011;48.238;13.948;2022-08-21T13:02:51;6.63;;;4.10;;
3993;SDS011;2011;48.238;13.948;2022-08-21T13:05:24;6.30;;;4.20;;
3993;SDS011;2011;48.238;13.948;2022-08-21T13:07:58;6.03;;;4.37;;
3993;SDS011;2011;48.238;13.948;2022-08-21T13:10:36;5.83;;;4.67;;
3993;SDS011;2011;48.238;13.948;2022-08-21T13:13:06;6.63;;;4.13;;
3993;SDS011;2011;48.238;13.948;2022-08-21T13:15:41;6.17;;;4.07;;
3993;SDS011;2011;48.238;13.948;2022-08-21T13:18:18;8.10;;;5.97;;
3993;SDS011;2011;48.238;13.948;2022-08-21T13:20:48;9.03;;;5.27;;
3993;SDS011;2011;48.238;13.948;2022-08-21T13:23:20;9.20;;;5.73;;
3993;SDS011;2011;48.238;13.948;2022-08-21T13:25:50;13.20;;;6.23;;
3993;SDS011;2011;48.238;13.948;2022-08-21T13:28:19;10.47;;;7.30;;
3993;SDS011;2011;48.238;13.948;2022-08-21T13:30:49;8.90;;;6.30;;
3993;SDS011;2011;48.238;13.948;2022-08-21T13:33:23;11.30;;;7.27;;
3993;SDS011;2011;48.238;13.948;2022-08-21T13:36:01;10.03;;;6.63;;
3993;SDS011;2011;48.238;13.948;2022-08-21T13:38:33;7.50;;;6.20;;
3993;SDS011;2011;48.238;13.948;2022-08-21T13:41:03;9.93;;;6.47;;
3993;SDS011;2011;48.238;13.948;2022-08-21T13:43:33;11.07;;;7.13;;
3993;SDS011;2011;48.238;13.948;2022-08-21T13:46:08;9.00;;;6.60;;
3993;SDS011;2011;48.238;13.948;2022-08-21T13:48:38;9.97;;;6.63;;
3993;SDS011;2011;48.238;13.948;2022-08-21T13:51:06;9.40;;;6.03;;
3993;SDS011;2011;48.238;13.948;2022-08-21T13:53:35;9.40;;;6.43;;
3993;SDS011;2011;48.238;13.948;2022-08-21T13:56:20;13.20;;;9.07;;
3993;SDS011;2011;48.238;13.948;2022-08-21T13:58:50;13.70;;;10.27;;
3993;SDS011;2011;48.238;13.948;2022-08-21T14:01:22;10.37;;;8.10;;
3993;SDS011;2011;48.238;13.948;2022-08-21T14:03:53;24.20;;;7.40;;
3993;SDS011;2011;48.238;13.948;2022-08-21T14:06:25;9.90;;;7.17;;
3993;SDS011;2011;48.238;13.948;2022-08-21T14:08:54;11.30;;;6.70;;
3993;SDS011;2011;48.238;13.948;2022-08-21T14:11:24;22.13;;;6.67;;
3993;SDS011;2011;48.238;13.948;2022-08-21T14:13:56;12.73;;;7.90;;
3993;SDS011;2011;48.238;13.948;2022-08-21T14:16:29;8.30;;;6.90;;
3993;SDS011;2011;48.238;13.948;2022-08-21T14:19:10;10.97;;;7.20;;
3993;SDS011;2011;48.238;13.948;2022-08-21T14:21:45;12.30;;;8.10;;
3993;SDS011;2011;48.238;13.948;2022-08-21T14:24:14;12.80;;;7.13;;
3993;SDS011;2011;48.238;13.948;2022-08-21T14:26:53;11.80;;;7.87;;
3993;SDS011;2011;48.238;13.948;2022-08-21T14:29:22;13.77;;;8.13;;
3993;SDS011;2011;48.238;13.948;2022-08-21T14:31:54;10.20;;;7.07;;
3993;SDS011;2011;48.238;13.948;2022-08-21T14:34:26;12.93;;;7.53;;
3993;SDS011;2011;48.238;13.948;2022-08-21T14:36:54;9.90;;;6.83;;
3993;SDS011;2011;48.238;13.948;2022-08-21T14:39:23;11.67;;;7.20;;
3993;SDS011;2011;48.238;13.948;2022-08-21T14:41:50;9.63;;;6.80;;
3993;SDS011;2011;48.238;13.948;2022-08-21T14:44:19;9.50;;;6.93;;
3993;SDS011;2011;48.238;13.948;2022-08-21T14:46:47;11.60;;;7.23;;
3993;SDS011;2011;48.238;13.948;2022-08-21T14:49:16;11.53;;;7.00;;
3993;SDS011;2011;48.238;13.948;2022-08-21T14:51:43;10.53;;;7.27;;
3993;SDS011;2011;48.238;13.948;2022-08-21T14:54:12;11.93;;;8.27;;
3993;SDS011;2011;48.238;13.948;2022-08-21T14:56:40;10.43;;;8.17;;
3993;SDS011;2011;48.238;13.948;2022-08-21T14:59:08;21.40;;;7.90;;
3993;SDS011;2011;48.238;13.948;2022-08-21T15:01:36;12.53;;;7.20;;
3993;SDS011;2011;48.238;13.948;2022-08-21T15:04:05;10.30;;;7.33;;
3993;SDS011;2011;48.238;13.948;2022-08-21T15:06:34;13.10;;;7.40;;
3993;SDS011;2011;48.238;13.948;2022-08-21T15:09:03;11.73;;;7.67;;
3993;SDS011;2011;48.238;13.948;2022-08-21T15:11:32;10.97;;;7.23;;